ROMMA est une association bénévole à but non lucratif. Votre soutien est indispensable : ADHERER à ROMMA ou FAIRE un DON

Granges-lès-Beaumont - (26, Drôme)

Drôme des Collines (155 m)   Longitude: 04°58'E   Latitude: 45°03'N Station partenaire n°123
 

Détail journalier du     <<     >>

Température Precipitation Humidité Pression Vent Dir Rafale Dir. rafale Ensol.
Heure (°C) (mm) (%) (hPa) (km/h) (km/h) (min)
01:00 5.907910303SSE10NNO0
02:00 7.207710305N21N0
03:00 8.1073103012N23NNE0
04:00 7.607410298N19N0
05:00 7.7074102915N27N0
06:00 7.2075103015N27NNO0
07:00 6.8076103012NE23NNE0
08:00 6.9077103010NE23ENE0
09:00 8.7073103015NNE29NE30
10:00 10.2068103119NNE34NNE20
11:00 11.9065103119N39NE0
12:00 14.6058103022NNE40NNE30
13:00 16.7050102921NNE40NE60
14:00 17.7048102920N45NNE60
15:00 18.0050102824NNE44N60
16:00 17.4052102820N44N60
17:00 16.3056102818N35NNE60
18:00 14.9060102814N32NNO50
19:00 13.1067102812N27N0
20:00 12.6070102816N32N0
21:00 11.6074102912NNO26N0
22:00 10.8077102912NO24NNO0
23:00 9.7080102911NNO19NNO0
minuit 9.1082102911NNE19NNE0

Graphique du 22-02-2019

 

Serveur OMMA